CheckWX is a tool to help pilots better visualize weather data.  It is not intended as a substitute for an official pre-flight weather briefing.

02:15:31 UTC

KDEC METAR
Decatur Airport
Decatur, Illinois, USA
Current

22 mins ago

KDEC 180154Z 31007KT 10SM BKN014 OVC019 M01/M03 A2991 RMK AO2 SLP134 T10111028
Observed
Feb-18 @ 01:54 UTC
Wind
  • 310° at 7 KTS
Visibility
10 SM
Flight Rules
MVFR
Cloud Levels
  • Broken at 1,400' AGL
  • Overcast at 1,900' AGL
Temperature
-1°C / 30°F
Dewpoint
-3°C / 27°F
Humidity
86%
Altimeter
29.91" Hg
Pressure
1013.4 hPa
Previous

1 hour ago

KDEC 180106Z 30010KT 9SM SCT010 OVC024 M01/M03 A2988 RMK AO2 T10061028
Observed
Feb-18 @ 01:06 UTC
Wind
  • 300° at 10 KTS
Visibility
9 SM
Flight Rules
MVFR
Cloud Levels
  • Scattered at 1,000' AGL
  • Overcast at 2,400' AGL
Temperature
-1°C / 30°F
Dewpoint
-3°C / 27°F
Humidity
86%
Altimeter
29.88" Hg
Pressure
1011.82 hPa
Previous

1 hour ago

KDEC 180054Z 30010G16KT 9SM BKN009 OVC024 M01/M03 A2988 RMK AO2 CIG 007V013 SLP125 T10061028
Observed
Feb-18 @ 00:54 UTC
Wind
  • 300° at 10 KTS
  • Gusting to 16 KTS
Visibility
9 SM
Flight Rules
IFR
Cloud Levels
  • Broken at 900' AGL
  • Overcast at 2,400' AGL
Temperature
-1°C / 30°F
Dewpoint
-3°C / 27°F
Humidity
86%
Altimeter
29.88" Hg
Pressure
1012.5 hPa